Time,TemperatureF,DewpointF,PressureIn,WindDirection,WindDirectionDegrees,WindSpeedMPH,WindSpeedGustMPH,Humidity,HourlyPrecipIn,Conditions,Clouds,dailyrainin,SoftwareType,DateUTC
2013-03-29 15:04:00,50.2,-18.8,29.69,NNW,346,7.1,7.1,5,0.00,,,0.00,VWS V14.01,2013-03-29 19:04:00,
2013-03-29 15:05:00,48.8,-4.7,30.08,North,352,6.3,7.1,10,0.00,,,0.00,VWS V14.01,2013-03-29 19:05:00,
2013-03-29 15:06:00,46.8,-3.8,30.18,North,8,7.3,7.3,12,0.00,,,0.00,VWS V14.01,2013-03-29 19:06:00,
2013-03-29 15:08:00,50.4,1.4,30.21,NW,319,3.4,7.3,13,0.00,,,0.00,VWS V14.01,2013-03-29 19:08:00,
2013-03-29 15:09:00,48.6,-2.2,30.20,North,0,3.7,6.1,12,0.00,,,0.00,VWS V14.01,2013-03-29 19:09:00,
2013-03-29 15:10:00,48.7,-4.5,30.19,NNE,26,5.6,5.6,10,0.00,,,0.00,VWS V14.01,2013-03-29 19:10:00,
2013-03-29 15:11:00,48.7,-4.5,30.19,NNE,26,5.6,5.6,10,0.00,,,0.00,VWS V14.01,2013-03-29 19:11:00,
2013-03-29 15:12:00,47.3,-2.9,30.20,NE,37,6.4,6.4,12,0.00,,,0.00,VWS V14.01,2013-03-29 19:12:00,
2013-03-29 15:13:00,47.3,-7.4,30.20,NE,56,4.9,8.1,10,0.00,,,0.00,VWS V14.01,2013-03-29 19:13:00,
2013-03-29 15:14:00,46.6,-5.9,30.20,NNE,19,6.1,6.1,11,0.00,,,0.00,VWS V14.01,2013-03-29 19:14:00,
2013-03-29 15:15:00,48.0,-2.5,30.20,North,0,4.5,4.5,12,0.00,,,0.00,VWS V14.01,2013-03-29 19:15:00,
2013-03-29 15:16:00,48.0,-4.7,30.20,North,4,3.5,4.5,11,0.00,,,0.00,VWS V14.01,2013-03-29 19:16:00,
2013-03-29 15:17:00,48.0,-4.7,30.20,North,4,3.5,4.5,11,0.00,,,0.00,VWS V14.01,2013-03-29 19:17:00,
2013-03-29 15:18:00,50.4,2.0,30.20,NNW,334,4.5,4.5,13,0.00,,,0.00,VWS V14.01,2013-03-29 19:18:00,
2013-03-29 15:19:00,47.4,0.8,30.20,NW,310,13.8,13.8,14,0.00,,,0.00,VWS V14.01,2013-03-29 19:19:00,
2013-03-29 15:20:00,49.3,2.9,30.20,NNW,344,7.5,12.3,15,0.00,,,0.00,VWS V14.01,2013-03-29 19:20:00,
2013-03-29 15:21:00,49.3,2.9,30.20,NNW,344,7.5,12.3,15,0.00,,,0.00,VWS V14.01,2013-03-29 19:21:00,
2013-03-29 15:22:00,46.8,-7.4,30.20,NNE,28,8.3,8.3,10,0.00,,,0.00,VWS V14.01,2013-03-29 19:22:00,
2013-03-29 15:23:00,48.6,-2.0,30.19,WNW,302,6.3,13.1,12,0.00,,,0.00,VWS V14.01,2013-03-29 19:23:00,
2013-03-29 15:24:00,48.0,-3.6,30.19,NW,324,9.2,10.0,11,0.00,,,0.00,VWS V14.01,2013-03-29 19:24:00,
2013-03-29 15:25:00,48.1,0.5,30.20,NE,38,7.5,10.0,14,0.00,,,0.00,VWS V14.01,2013-03-29 19:25:00,
2013-03-29 15:26:00,48.4,-3.0,30.20,NNW,329,4.2,7.5,11,0.00,,,0.00,VWS V14.01,2013-03-29 19:26:00,
2013-03-29 15:27:00,48.2,-2.5,30.19,North,349,7.3,7.3,12,0.00,,,0.00,VWS V14.01,2013-03-29 19:27:00,
2013-03-29 15:28:00,48.4,-3.2,30.20,North,360,7.1,7.1,11,0.00,,,0.00,VWS V14.01,2013-03-29 19:28:00,
2013-03-29 15:29:00,48.4,-3.2,30.20,North,360,7.1,7.1,11,0.00,,,0.00,VWS V14.01,2013-03-29 19:29:00,
2013-03-29 15:30:00,48.9,-4.9,30.21,NW,320,5.9,7.3,10,0.00,,,0.00,VWS V14.01,2013-03-29 19:30:00,
2013-03-29 15:31:00,49.1,-3.2,30.20,NW,317,8.5,8.5,11,0.00,,,0.00,VWS V14.01,2013-03-29 19:31:00,
2013-03-29 15:32:00,48.7,-4.1,30.22,NNW,343,6.6,10.0,11,0.00,,,0.00,VWS V14.01,2013-03-29 19:32:00,
2013-03-29 15:33:00,48.7,-4.1,30.22,NNW,343,6.6,10.0,11,0.00,,,0.00,VWS V14.01,2013-03-29 19:33:00,
2013-03-29 15:34:00,48.6,-3.1,30.20,NW,324,6.6,6.8,11,0.00,,,0.00,VWS V14.01,2013-03-29 19:34:00,
2013-03-29 15:35:00,48.2,-2.5,30.20,North,1,5.2,8.0,12,0.00,,,0.00,VWS V14.01,2013-03-29 19:35:00,
2013-03-29 15:36:00,47.3,-8.1,30.19,NW,316,4.9,5.2,9,0.00,,,0.00,VWS V14.01,2013-03-29 19:36:00,
2013-03-29 15:37:00,49.3,-2.2,30.20,North,11,2.0,4.9,11,0.00,,,0.00,VWS V14.01,2013-03-29 19:37:00,
2013-03-29 15:38:00,48.1,-1.5,30.20,NNE,33,3.4,6.8,12,0.00,,,0.00,VWS V14.01,2013-03-29 19:38:00,
2013-03-29 15:39:00,48.6,-4.0,30.20,NW,315,4.7,4.7,11,0.00,,,0.00,VWS V14.01,2013-03-29 19:39:00,
2013-03-29 15:40:00,49.9,-0.9,30.20,NNE,16,3.0,3.0,12,0.00,,,0.00,VWS V14.01,2013-03-29 19:40:00,
2013-03-29 15:41:00,47.3,-8.4,30.19,ENE,62,6.9,6.9,9,0.00,,,0.00,VWS V14.01,2013-03-29 19:41:00,
2013-03-29 16:12:00,50.1,-17.3,30.26,NW,314,5.2,5.2,5,0.00,,,0.00,VWS V14.01,2013-03-29 20:12:00,
2013-03-29 16:13:00,51.1,2.9,30.20,WNW,282,3.0,5.2,14,0.00,,,0.00,VWS V14.01,2013-03-29 20:13:00,
2013-03-29 16:14:00,50.3,-1.0,30.19,West,265,2.8,3.0,12,0.00,,,0.00,VWS V14.01,2013-03-29 20:14:00,
2013-03-29 16:15:00,52.2,3.3,30.19,NNE,12,1.5,3.0,13,0.00,,,0.00,VWS V14.01,2013-03-29 20:15:00,
2013-03-29 16:16:00,50.0,0.7,30.18,NW,325,0.0,1.5,13,0.00,,,0.00,VWS V14.01,2013-03-29 20:16:00,
2013-03-29 16:17:00,49.2,-5.6,30.19,NNW,329,10.9,10.9,10,0.00,,,0.00,VWS V14.01,2013-03-29 20:17:00,
2013-03-29 16:18:00,49.6,-5.5,30.20,WNW,288,7.5,10.9,10,0.00,,,0.00,VWS V14.01,2013-03-29 20:18:00,
2013-03-29 16:19:00,50.4,-1.1,30.18,NW,318,7.1,7.5,12,0.00,,,0.00,VWS V14.01,2013-03-29 20:19:00,
2013-03-29 16:20:00,50.0,-0.6,30.18,NNW,334,10.0,11.4,12,0.00,,,0.00,VWS V14.01,2013-03-29 20:20:00,
2013-03-29 16:21:00,50.0,-0.6,30.18,NNW,334,10.0,11.4,12,0.00,,,0.00,VWS V14.01,2013-03-29 20:21:00,
2013-03-29 16:22:00,48.8,-2.5,30.18,NW,316,12.3,12.3,11,0.00,,,0.00,VWS V14.01,2013-03-29 20:22:00,
2013-03-29 16:23:00,51.5,1.6,30.19,NNW,348,8.5,12.3,13,0.00,,,0.00,VWS V14.01,2013-03-29 20:23:00,
2013-03-29 16:24:00,48.6,-3.2,30.19,WNW,303,3.2,8.5,11,0.00,,,0.00,VWS V14.01,2013-03-29 20:24:00,
2013-03-29 16:25:00,49.5,-1.1,30.19,North,360,5.2,5.2,12,0.00,,,0.00,VWS V14.01,2013-03-29 20:25:00,
2013-03-29 16:26:00,51.1,-0.6,30.19,North,349,3.0,3.0,12,0.00,,,0.00,VWS V14.01,2013-03-29 20:26:00,
2013-03-29 16:27:00,48.2,-1.6,30.18,WNW,284,12.1,12.1,12,0.00,,,0.00,VWS V14.01,2013-03-29 20:27:00,
2013-03-29 16:28:00,48.5,-0.2,30.19,WNW,291,14.1,14.1,13,0.00,,,0.00,VWS V14.01,2013-03-29 20:28:00,
2013-03-29 16:29:00,48.5,-0.2,30.18,WNW,291,14.1,14.1,13,0.00,,,0.00,VWS V14.01,2013-03-29 20:29:00,
2013-03-29 16:30:00,48.9,0.3,30.18,NW,315,9.7,14.1,13,0.00,,,0.00,VWS V14.01,2013-03-29 20:30:00,
2013-03-29 16:31:00,48.2,-5.9,30.18,NNW,327,7.5,10.2,10,0.00,,,0.00,VWS V14.01,2013-03-29 20:31:00,
2013-03-29 16:32:00,49.2,-7.7,30.19,NW,311,4.9,7.5,9,0.00,,,0.00,VWS V14.01,2013-03-29 20:32:00,
2013-03-29 16:33:00,49.2,-7.7,30.19,NW,311,4.9,7.5,9,0.00,,,0.00,VWS V14.01,2013-03-29 20:33:00,
2013-03-29 16:34:00,49.5,-2.9,30.19,NW,306,9.2,9.2,11,0.00,,,0.00,VWS V14.01,2013-03-29 20:34:00,
2013-03-29 16:35:00,51.1,1.7,30.19,NW,313,4.9,9.2,13,0.00,,,0.00,VWS V14.01,2013-03-29 20:35:00,
2013-03-29 16:36:00,50.5,-2.1,30.19,North,2,7.5,8.0,11,0.00,,,0.00,VWS V14.01,2013-03-29 20:36:00,
2013-03-29 16:37:00,50.7,1.9,30.18,WNW,294,8.0,8.0,13,0.00,,,0.00,VWS V14.01,2013-03-29 20:37:00,
2013-03-29 16:38:00,48.6,-2.1,30.18,WNW,303,7.8,10.4,12,0.00,,,0.00,VWS V14.01,2013-03-29 20:38:00,
2013-03-29 16:39:00,48.0,-0.6,30.18,WNW,293,7.8,7.8,13,0.00,,,0.00,VWS V14.01,2013-03-29 20:39:00,
2013-03-29 16:40:00,51.7,0.6,30.18,NW,326,7.8,7.8,12,0.00,,,0.00,VWS V14.01,2013-03-29 20:40:00,
2013-03-29 16:41:00,48.8,-4.4,30.18,NNW,330,8.7,9.2,10,0.00,,,0.00,VWS V14.01,2013-03-29 20:41:00,
2013-03-29 16:42:00,49.0,2.0,30.17,NW,306,10.7,10.7,14,0.00,,,0.00,VWS V14.01,2013-03-29 20:42:00,
2013-03-29 16:43:00,50.2,3.5,30.18,WNW,297,8.1,10.7,14,0.00,,,0.00,VWS V14.01,2013-03-29 20:43:00,
2013-03-29 16:44:00,48.1,-4.9,30.18,WSW,257,5.7,8.8,10,0.00,,,0.00,VWS V14.01,2013-03-29 20:44:00,
2013-03-29 16:45:00,50.5,-1.3,30.18,West,259,4.5,5.7,11,0.00,,,0.00,VWS V14.01,2013-03-29 20:45:00,
2013-03-29 16:46:00,48.4,-5.2,30.18,West,259,5.1,5.7,10,0.00,,,0.00,VWS V14.01,2013-03-29 20:46:00,
2013-03-29 16:47:00,49.4,-3.4,30.18,West,277,3.7,5.1,11,0.00,,,0.00,VWS V14.01,2013-03-29 20:47:00,
2013-03-29 16:48:00,50.7,-0.5,30.18,WNW,286,5.7,5.7,12,0.00,,,0.00,VWS V14.01,2013-03-29 20:48:00,
2013-03-29 16:49:00,50.0,-4.4,30.18,NW,326,11.9,11.9,10,0.00,,,0.00,VWS V14.01,2013-03-29 20:49:00,
2013-03-29 16:50:00,50.0,-4.4,30.18,NW,326,11.9,11.9,10,0.00,,,0.00,VWS V14.01,2013-03-29 20:50:00,
2013-03-29 16:51:00,49.2,-4.9,30.18,WNW,291,7.5,9.0,10,0.00,,,0.00,VWS V14.01,2013-03-29 20:51:00,
2013-03-29 16:52:00,49.3,-5.1,30.18,WNW,295,6.8,9.0,10,0.00,,,0.00,VWS V14.01,2013-03-29 20:52:00,
2013-03-29 16:53:00,49.5,0.1,30.18,WNW,298,6.3,8.1,13,0.00,,,0.00,VWS V14.01,2013-03-29 20:53:00,
2013-03-29 16:54:00,50.3,2.6,30.18,NW,313,9.9,9.9,14,0.00,,,0.00,VWS V14.01,2013-03-29 20:54:00,
2013-03-29 16:55:00,49.6,-5.9,30.19,West,277,9.2,12.9,9,0.00,,,0.00,VWS V14.01,2013-03-29 20:55:00,
2013-03-29 16:56:00,49.8,-0.6,30.19,NW,307,14.1,14.1,12,0.00,,,0.00,VWS V14.01,2013-03-29 20:56:00,
2013-03-29 16:57:00,51.7,5.9,30.19,NW,312,7.3,14.1,15,0.00,,,0.00,VWS V14.01,2013-03-29 20:57:00,
2013-03-29 16:58:00,47.8,-6.5,30.19,WNW,285,10.4,10.4,10,0.00,,,0.00,VWS V14.01,2013-03-29 20:58:00,
2013-03-29 16:59:00,50.8,0.8,30.19,NW,316,7.3,10.4,12,0.00,,,0.00,VWS V14.01,2013-03-29 20:59:00,
2013-03-29 17:00:00,49.6,-3.9,30.22,West,273,11.2,11.2,10,0.00,,,0.00,VWS V14.01,2013-03-29 21:00:00,
2013-03-29 17:01:00,48.7,-0.5,30.18,West,260,10.7,11.2,13,0.00,,,0.00,VWS V14.01,2013-03-29 21:01:00,
2013-03-29 17:02:00,49.9,0.3,30.18,WNW,282,6.3,10.7,13,0.00,,,0.00,VWS V14.01,2013-03-29 21:02:00,
2013-03-29 17:03:00,48.4,-6.3,30.18,WNW,286,9.2,9.2,10,0.00,,,0.00,VWS V14.01,2013-03-29 21:03:00,
2013-03-29 17:04:00,50.3,3.5,30.19,WNW,288,8.3,10.0,14,0.00,,,0.00,VWS V14.01,2013-03-29 21:04:00,
2013-03-29 17:05:00,49.2,-4.3,30.18,WNW,283,6.8,8.7,10,0.00,,,0.00,VWS V14.01,2013-03-29 21:05:00,
2013-03-29 17:06:00,48.9,2.2,30.18,NW,312,11.2,11.2,14,0.00,,,0.00,VWS V14.01,2013-03-29 21:06:00,
2013-03-29 17:07:00,50.6,4.2,30.18,WNW,301,8.0,11.2,15,0.00,,,0.00,VWS V14.01,2013-03-29 21:07:00,
2013-03-29 17:08:00,49.4,3.0,30.17,NW,321,6.4,9.2,14,0.00,,,0.00,VWS V14.01,2013-03-29 21:08:00,
2013-03-29 17:09:00,49.6,-2.6,30.18,WNW,301,6.3,7.6,11,0.00,,,0.00,VWS V14.01,2013-03-29 21:09:00,
2013-03-29 17:10:00,51.0,-0.2,30.19,WNW,303,7.1,7.8,12,0.00,,,0.00,VWS V14.01,2013-03-29 21:10:00,
2013-03-29 17:11:00,50.3,0.7,30.18,WNW,294,9.7,9.7,13,0.00,,,0.00,VWS V14.01,2013-03-29 21:11:00,
2013-03-29 17:12:00,49.2,-1.0,30.18,WNW,301,6.6,10.0,12,0.00,,,0.00,VWS V14.01,2013-03-29 21:12:00,
2013-03-29 17:13:00,49.1,-4.1,30.18,WNW,300,7.5,7.5,10,0.00,,,0.00,VWS V14.01,2013-03-29 21:13:00,
2013-03-29 17:14:00,49.4,-4.5,30.18,NW,309,11.2,11.2,10,0.00,,,0.00,VWS V14.01,2013-03-29 21:14:00,
2013-03-29 17:15:00,51.3,1.6,30.18,WNW,286,8.5,11.2,13,0.00,,,0.00,VWS V14.01,2013-03-29 21:15:00,
2013-03-29 17:16:00,50.4,-0.5,30.18,NNW,348,6.3,8.0,12,0.00,,,0.00,VWS V14.01,2013-03-29 21:16:00,
2013-03-29 17:17:00,50.5,-5.1,30.21,NE,34,3.5,6.3,10,0.00,,,0.00,VWS V14.01,2013-03-29 21:17:00,
2013-03-29 17:18:00,49.8,-3.9,30.18,North,350,10.9,10.9,10,0.00,,,0.00,VWS V14.01,2013-03-29 21:18:00,
2013-03-29 17:19:00,50.4,-1.3,30.17,NNW,327,8.8,10.9,11,0.00,,,0.00,VWS V14.01,2013-03-29 21:19:00,
2013-03-29 17:20:00,51.6,-0.5,30.18,North,1,7.3,8.8,11,0.00,,,0.00,VWS V14.01,2013-03-29 21:20:00,
2013-03-29 17:21:00,50.7,-5.1,30.18,North,351,3.5,8.5,9,0.00,,,0.00,VWS V14.01,2013-03-29 21:21:00,
2013-03-29 17:22:00,49.7,-6.2,30.17,North,1,4.9,4.9,9,0.00,,,0.00,VWS V14.01,2013-03-29 21:22:00,
2013-03-29 17:23:00,49.3,-5.8,30.17,NNW,331,13.5,13.5,10,0.00,,,0.00,VWS V14.01,2013-03-29 21:23:00,
2013-03-29 17:24:00,49.3,-5.8,30.17,NNW,331,13.5,13.5,10,0.00,,,0.00,VWS V14.01,2013-03-29 21:24:00,
2013-03-29 17:25:00,50.3,2.8,30.21,NNW,338,7.1,9.5,14,0.00,,,0.00,VWS V14.01,2013-03-29 21:25:00,
2013-03-29 17:26:00,49.8,1.3,30.18,North,0,5.2,7.1,13,0.00,,,0.00,VWS V14.01,2013-03-29 21:26:00,
2013-03-29 17:27:00,50.2,-2.8,30.17,NNW,334,6.8,7.3,11,0.00,,,0.00,VWS V14.01,2013-03-29 21:27:00,
2013-03-29 17:28:00,50.7,2.3,30.17,NNW,331,7.8,7.8,13,0.00,,,0.00,VWS V14.01,2013-03-29 21:28:00,
2013-03-29 17:29:00,49.9,-5.1,30.19,NNW,329,8.8,8.8,10,0.00,,,0.00,VWS V14.01,2013-03-29 21:29:00,
2013-03-29 17:30:00,49.5,-5.4,30.18,NNW,340,8.8,10.4,10,0.00,,,0.00,VWS V14.01,2013-03-29 21:30:00,
2013-03-29 17:31:00,50.3,1.7,30.18,NNW,327,4.5,8.8,13,0.00,,,0.00,VWS V14.01,2013-03-29 21:31:00,
2013-03-29 17:32:00,51.2,3.9,30.18,NW,319,8.3,8.3,14,0.00,,,0.00,VWS V14.01,2013-03-29 21:32:00,
2013-03-29 17:33:00,49.3,-0.8,30.18,NNW,331,7.1,8.7,12,0.00,,,0.00,VWS V14.01,2013-03-29 21:33:00,
2013-03-29 17:34:00,49.6,-4.6,30.21,NNW,348,5.7,7.1,10,0.00,,,0.00,VWS V14.01,2013-03-29 21:34:00,
2013-03-29 17:35:00,49.5,-2.0,30.18,NW,326,6.1,6.1,11,0.00,,,0.00,VWS V14.01,2013-03-29 21:35:00,
2013-03-29 17:36:00,49.1,-8.9,30.18,WNW,299,7.3,7.3,8,0.00,,,0.00,VWS V14.01,2013-03-29 21:36:00,
2013-03-29 17:37:00,50.0,1.8,30.18,NW,313,7.3,7.3,13,0.00,,,0.00,VWS V14.01,2013-03-29 21:37:00,
2013-03-29 17:38:00,48.9,-3.4,30.18,NW,323,6.9,8.7,11,0.00,,,0.00,VWS V14.01,2013-03-29 21:38:00,
2013-03-29 17:39:00,49.5,-4.6,30.18,WNW,289,9.9,9.9,10,0.00,,,0.00,VWS V14.01,2013-03-29 21:39:00,
2013-03-29 17:40:00,48.6,-3.8,30.18,West,261,8.0,13.8,11,0.00,,,0.00,VWS V14.01,2013-03-29 21:40:00,
2013-03-29 17:41:00,49.7,2.4,30.18,WNW,291,4.7,8.0,14,0.00,,,0.00,VWS V14.01,2013-03-29 21:41:00,
2013-03-29 17:42:00,50.1,-1.6,30.18,NW,324,8.8,8.8,11,0.00,,,0.00,VWS V14.01,2013-03-29 21:42:00,
2013-03-29 17:43:00,49.7,-1.7,30.17,NNW,337,8.0,8.8,12,0.00,,,0.00,VWS V14.01,2013-03-29 21:43:00,
2013-03-29 17:44:00,49.4,-7.2,30.18,NW,310,3.5,8.0,9,0.00,,,0.00,VWS V14.01,2013-03-29 21:44:00,
2013-03-29 17:45:00,49.7,1.4,30.18,WNW,303,7.3,7.3,13,0.00,,,0.00,VWS V14.01,2013-03-29 21:45:00,
2013-03-29 17:46:00,50.7,-2.4,30.17,NW,311,5.4,7.3,11,0.00,,,0.00,VWS V14.01,2013-03-29 21:46:00,
2013-03-29 17:47:00,49.7,-0.1,30.18,WNW,301,8.1,8.1,12,0.00,,,0.00,VWS V14.01,2013-03-29 21:47:00,
2013-03-29 17:48:00,50.0,-4.0,30.17,NNE,13,4.7,5.6,10,0.00,,,0.00,VWS V14.01,2013-03-29 21:48:00,
2013-03-29 17:49:00,51.1,-4.9,30.16,NNE,12,2.8,4.7,9,0.00,,,0.00,VWS V14.01,2013-03-29 21:49:00,
2013-03-29 17:50:00,50.4,-6.2,30.20,NNE,25,5.1,5.1,9,0.00,,,0.00,VWS V14.01,2013-03-29 21:50:00,
2013-03-29 17:51:00,51.3,-3.2,30.18,NNW,339,4.5,5.1,10,0.00,,,0.00,VWS V14.01,2013-03-29 21:51:00,
2013-03-29 17:52:00,49.7,-0.5,30.17,NNW,327,10.9,10.9,12,0.00,,,0.00,VWS V14.01,2013-03-29 21:52:00,
2013-03-29 17:53:00,50.7,0.0,30.17,NW,314,7.3,10.5,12,0.00,,,0.00,VWS V14.01,2013-03-29 21:53:00,
2013-03-29 17:54:00,50.9,1.2,30.17,NW,322,8.3,10.2,13,0.00,,,0.00,VWS V14.01,2013-03-29 21:54:00,
2013-03-29 17:55:00,49.4,-1.8,30.17,WNW,303,11.2,11.6,12,0.00,,,0.00,VWS V14.01,2013-03-29 21:55:00,
2013-03-29 17:56:00,49.6,-2.8,30.20,NW,312,12.9,12.9,11,0.00,,,0.00,VWS V14.01,2013-03-29 21:56:00,
2013-03-29 17:57:00,51.1,0.7,30.18,North,351,7.3,12.9,12,0.00,,,0.00,VWS V14.01,2013-03-29 21:57:00,
2013-03-29 17:58:00,50.8,2.4,30.18,NW,326,8.7,8.7,13,0.00,,,0.00,VWS V14.01,2013-03-29 21:58:00,
2013-03-29 17:59:00,49.6,-13.9,30.18,NW,309,12.6,12.6,6,0.00,,,0.00,VWS V14.01,2013-03-29 21:59:00,
2013-03-29 18:00:00,49.3,0.9,30.18,NW,314,7.5,8.7,13,0.00,,,0.00,VWS V14.01,2013-03-29 22:00:00,
2013-03-29 18:03:00,49.5,-6.6,30.17,NW,308,9.3,11.7,9,0.00,,,0.00,VWS V14.01,2013-03-29 22:03:00,
2013-03-29 18:05:00,49.6,2.8,30.17,NE,43,4.7,7.6,14,0.00,,,0.00,VWS V14.01,2013-03-29 22:05:00,
2013-03-29 18:10:00,50.5,-3.9,30.17,North,2,8.1,8.1,10,0.00,,,0.00,VWS V14.01,2013-03-29 22:10:00,
2013-03-29 18:11:00,50.8,-4.1,30.18,NNW,346,6.1,8.1,10,0.00,,,0.00,VWS V14.01,2013-03-29 22:11:00,
2013-03-29 18:15:00,50.7,-3.6,30.18,NE,38,3.2,7.3,10,0.00,,,0.00,VWS V14.01,2013-03-29 22:15:00,
2013-03-29 18:16:00,50.6,0.2,30.18,NNW,336,5.4,5.7,12,0.00,,,0.00,VWS V14.01,2013-03-29 22:16:00,
2013-03-29 18:17:00,50.7,-3.9,30.18,North,7,3.4,8.1,10,0.00,,,0.00,VWS V14.01,2013-03-29 22:17:00,
2013-03-29 18:21:00,50.4,-3.6,30.17,NNW,344,6.9,6.9,10,0.00,,,0.00,VWS V14.01,2013-03-29 22:21:00,
2013-03-29 18:22:00,50.4,-0.9,30.18,NW,309,7.3,7.3,12,0.00,,,0.00,VWS V14.01,2013-03-29 22:22:00,
2013-03-29 18:23:00,49.4,-1.6,30.18,NNW,332,7.1,9.5,12,0.00,,,0.00,VWS V14.01,2013-03-29 22:23:00,
2013-03-29 18:27:00,50.3,0.7,30.19,NNW,333,4.4,8.7,13,0.00,,,0.00,VWS V14.01,2013-03-29 22:27:00,
2013-03-29 18:28:00,50.2,-4.6,30.18,North,349,4.9,4.9,10,0.00,,,0.00,VWS V14.01,2013-03-29 22:28:00,
2013-03-29 18:29:00,50.5,-4.4,30.18,NNW,333,2.7,4.9,10,0.00,,,0.00,VWS V14.01,2013-03-29 22:29:00,
2013-03-29 18:32:00,50.0,-4.1,30.18,WNW,284,5.2,5.2,10,0.00,,,0.00,VWS V14.01,2013-03-29 22:32:00,
2013-03-29 18:34:00,50.3,1.7,30.18,NNW,332,5.6,9.0,13,0.00,,,0.00,VWS V14.01,2013-03-29 22:34:00,
2013-03-29 18:38:00,49.2,-7.6,30.18,NW,311,6.4,7.8,9,0.00,,,0.00,VWS V14.01,2013-03-29 22:38:00,
2013-03-29 18:39:00,49.2,-6.6,30.18,WNW,295,6.3,6.8,9,0.00,,,0.00,VWS V14.01,2013-03-29 22:39:00,
2013-03-29 18:40:00,49.7,2.9,30.17,NW,309,7.1,9.0,14,0.00,,,0.00,VWS V14.01,2013-03-29 22:40:00,
2013-03-29 18:43:00,49.5,-1.0,30.19,NNW,339,6.6,6.9,12,0.00,,,0.00,VWS V14.01,2013-03-29 22:43:00,
2013-03-29 18:45:00,49.4,-4.2,30.18,NE,39,4.0,5.1,10,0.00,,,0.00,VWS V14.01,2013-03-29 22:45:00,
2013-03-29 18:46:00,49.9,-4.3,30.18,North,10,2.2,4.9,10,0.00,,,0.00,VWS V14.01,2013-03-29 22:46:00,
2013-03-29 18:48:00,49.2,-3.3,30.18,NNE,12,6.1,6.4,11,0.00,,,0.00,VWS V14.01,2013-03-29 22:48:00,
2013-03-29 18:49:00,48.9,-1.0,30.18,NW,313,6.1,6.1,12,0.00,,,0.00,VWS V14.01,2013-03-29 22:49:00,
2013-03-29 18:50:00,49.7,-3.7,30.18,North,0,2.7,6.1,10,0.00,,,0.00,VWS V14.01,2013-03-29 22:50:00,
2013-03-29 18:53:00,49.0,-1.8,30.18,NW,320,4.9,4.9,12,0.00,,,0.00,VWS V14.01,2013-03-29 22:53:00,
2013-03-29 18:54:00,49.0,-1.8,30.18,NW,320,4.9,4.9,12,0.00,,,0.00,VWS V14.01,2013-03-29 22:54:00,
2013-03-29 18:56:00,49.0,-1.0,30.18,NW,316,8.8,8.8,12,0.00,,,0.00,VWS V14.01,2013-03-29 22:56:00,
2013-03-29 18:59:00,48.8,-4.8,30.19,NW,312,8.1,9.0,10,0.00,,,0.00,VWS V14.01,2013-03-29 22:59:00,
2013-03-29 19:00:00,49.0,-2.6,30.18,NNW,337,6.8,8.8,11,0.00,,,0.00,VWS V14.01,2013-03-29 23:00:00,
2013-03-29 19:01:00,49.3,-3.7,30.18,NW,308,11.6,11.6,11,0.00,,,0.00,VWS V14.01,2013-03-29 23:01:00,
2013-03-29 19:02:00,48.8,-2.3,30.22,NNW,327,8.1,8.1,12,0.00,,,0.00,VWS V14.01,2013-03-29 23:02:00,
2013-03-29 19:03:00,50.6,-4.0,30.18,NW,306,11.7,11.9,10,0.00,,,0.00,VWS V14.01,2013-03-29 23:03:00,
2013-03-29 19:04:00,48.6,-0.7,30.18,NW,313,6.4,6.4,13,0.00,,,0.00,VWS V14.01,2013-03-29 23:04:00,
2013-03-29 19:05:00,48.5,1.5,30.19,NW,306,6.9,6.9,14,0.00,,,0.00,VWS V14.01,2013-03-29 23:05:00,
2013-03-29 19:06:00,50.5,-0.3,30.17,NE,38,4.5,7.6,12,0.00,,,0.00,VWS V14.01,2013-03-29 23:06:00,
2013-03-29 19:07:00,48.6,-0.8,30.19,NW,310,6.4,9.0,13,0.00,,,0.00,VWS V14.01,2013-03-29 23:07:00,
2013-03-29 19:08:00,48.4,0.2,30.19,WNW,299,7.1,8.5,13,0.00,,,0.00,VWS V14.01,2013-03-29 23:08:00,
2013-03-29 19:09:00,49.2,-7.3,30.18,NE,51,6.6,6.6,9,0.00,,,0.00,VWS V14.01,2013-03-29 23:09:00,
2013-03-29 19:10:00,48.2,-2.1,30.19,NW,307,6.6,7.1,12,0.00,,,0.00,VWS V14.01,2013-03-29 23:10:00,
2013-03-29 19:11:00,50.5,-3.9,30.17,North,2,8.1,8.1,10,0.00,,,0.00,VWS V14.01,2013-03-29 23:11:00,
2013-03-29 19:12:00,48.7,1.5,30.18,NNW,348,5.2,6.9,14,0.00,,,0.00,VWS V14.01,2013-03-29 23:12:00,
2013-03-29 19:13:00,48.4,1.9,30.19,WNW,299,5.9,5.9,14,0.00,,,0.00,VWS V14.01,2013-03-29 23:13:00,
2013-03-29 19:14:00,50.4,-3.4,30.18,NW,310,7.1,8.7,10,0.00,,,0.00,VWS V14.01,2013-03-29 23:14:00,
2013-03-29 19:15:00,48.2,1.4,30.19,NW,314,7.8,9.5,14,0.00,,,0.00,VWS V14.01,2013-03-29 23:15:00,
2013-03-29 19:16:00,50.2,-1.6,30.18,NW,311,6.3,7.3,11,0.00,,,0.00,VWS V14.01,2013-03-29 23:16:00,
2013-03-29 19:17:00,50.0,-0.6,30.18,NW,313,5.7,6.3,12,0.00,,,0.00,VWS V14.01,2013-03-29 23:17:00,
2013-03-29 19:18:00,48.7,-2.6,30.18,North,349,5.9,5.9,11,0.00,,,0.00,VWS V14.01,2013-03-29 23:18:00,
2013-03-29 19:19:00,48.5,-1.7,30.20,NNW,334,7.3,7.3,12,0.00,,,0.00,VWS V14.01,2013-03-29 23:19:00,
2013-03-29 19:20:00,48.8,-0.4,30.19,NNW,338,5.2,6.6,13,0.00,,,0.00,VWS V14.01,2013-03-29 23:20:00,
2013-03-29 19:21:00,50.4,-3.4,30.17,NW,319,6.9,6.9,10,0.00,,,0.00,VWS V14.01,2013-03-29 23:21:00,
2013-03-29 19:22:00,50.4,-0.9,30.18,NW,309,7.3,7.3,12,0.00,,,0.00,VWS V14.01,2013-03-29 23:22:00,
2013-03-29 19:23:00,48.7,-0.9,30.19,NNW,334,4.0,6.1,12,0.00,,,0.00,VWS V14.01,2013-03-29 23:23:00,
2013-03-29 19:24:00,48.8,2.9,30.18,NW,321,7.3,7.3,15,0.00,,,0.00,VWS V14.01,2013-03-29 23:24:00,
2013-03-29 19:25:00,49.4,-1.8,30.18,NW,314,8.7,8.7,12,0.00,,,0.00,VWS V14.01,2013-03-29 23:25:00,
2013-03-29 19:26:00,48.3,-0.8,30.19,NW,324,6.1,6.1,13,0.00,,,0.00,VWS V14.01,2013-03-29 23:26:00,
2013-03-29 19:27:00,49.7,0.4,30.18,NNW,345,8.7,10.2,13,0.00,,,0.00,VWS V14.01,2013-03-29 23:27:00,
2013-03-29 19:28:00,50.3,0.7,30.18,NNW,333,4.4,8.7,13,0.00,,,0.00,VWS V14.01,2013-03-29 23:28:00,
2013-03-29 19:29:00,48.7,0.6,30.19,NW,315,7.8,7.8,13,0.00,,,0.00,VWS V14.01,2013-03-29 23:29:00,
2013-03-29 19:30:00,48.5,-0.7,30.19,NW,319,5.1,8.8,13,0.00,,,0.00,VWS V14.01,2013-03-29 23:30:00,
2013-03-29 19:31:00,48.7,1.7,30.19,NNW,327,4.7,5.1,14,0.00,,,0.00,VWS V14.01,2013-03-29 23:31:00,
2013-03-29 19:33:00,48.6,1.4,30.20,NNW,339,6.6,6.6,14,0.00,,,0.00,VWS V14.01,2013-03-29 23:33:00,
2013-03-29 19:34:00,50.1,0.2,30.18,NW,320,9.0,9.0,12,0.00,,,0.00,VWS V14.01,2013-03-29 23:34:00,
2013-03-29 19:35:00,48.1,1.0,30.19,NW,314,4.9,5.6,14,0.00,,,0.00,VWS V14.01,2013-03-29 23:35:00,
2013-03-29 19:36:00,49.5,-1.4,30.18,NW,317,11.7,11.7,12,0.00,,,0.00,VWS V14.01,2013-03-29 23:36:00,
2013-03-29 19:37:00,48.1,2.9,30.20,NW,311,5.6,6.6,15,0.00,,,0.00,VWS V14.01,2013-03-29 23:37:00,
2013-03-29 19:38:00,48.3,2.4,30.19,NNW,332,3.5,4.9,15,0.00,,,0.00,VWS V14.01,2013-03-29 23:38:00,
2013-03-29 19:39:00,49.2,-4.8,30.18,WNW,290,6.8,7.8,10,0.00,,,0.00,VWS V14.01,2013-03-29 23:39:00,
2013-03-29 19:40:00,49.2,-6.6,30.18,WNW,295,6.3,6.8,9,0.00,,,0.00,VWS V14.01,2013-03-29 23:40:00,
2013-03-29 19:41:00,48.4,2.1,30.19,NNW,342,2.8,3.0,14,0.00,,,0.00,VWS V14.01,2013-03-29 23:41:00,
2013-03-29 19:42:00,49.9,2.2,30.18,NNW,332,6.1,7.1,14,0.00,,,0.00,VWS V14.01,2013-03-29 23:42:00,
2013-03-29 19:43:00,47.6,-2.0,30.18,NW,319,3.9,3.9,12,0.00,,,0.00,VWS V14.01,2013-03-29 23:43:00,
2013-03-29 19:44:00,47.8,0.2,30.18,NW,319,4.5,4.5,14,0.00,,,0.00,VWS V14.01,2013-03-29 23:44:00,
2013-03-29 19:45:00,49.3,-1.7,30.18,NNW,338,5.1,6.6,12,0.00,,,0.00,VWS V14.01,2013-03-29 23:45:00,
2013-03-29 19:46:00,49.4,-4.2,30.18,NE,39,4.0,5.1,10,0.00,,,0.00,VWS V14.01,2013-03-29 23:46:00,
2013-03-29 19:47:00,49.9,-4.3,30.18,North,10,2.2,4.9,10,0.00,,,0.00,VWS V14.01,2013-03-29 23:47:00,
2013-03-29 19:48:00,47.2,1.8,30.20,NNW,347,3.4,3.7,15,0.00,,,0.00,VWS V14.01,2013-03-29 23:48:00,
2013-03-29 19:49:00,47.2,1.8,30.20,NNW,347,3.4,3.7,15,0.00,,,0.00,VWS V14.01,2013-03-29 23:49:00,
2013-03-29 19:50:00,48.9,-1.0,30.18,NW,313,6.1,6.1,12,0.00,,,0.00,VWS V14.01,2013-03-29 23:50:00,
2013-03-29 19:51:00,49.7,-3.7,30.17,North,0,2.7,6.1,10,0.00,,,0.00,VWS V14.01,2013-03-29 23:51:00,
2013-03-29 19:52:00,49.1,-3.8,30.18,NNE,29,5.6,5.6,11,0.00,,,0.00,VWS V14.01,2013-03-29 23:52:00,
2013-03-29 19:53:00,46.7,0.8,30.20,NW,325,4.0,4.0,15,0.00,,,0.00,VWS V14.01,2013-03-29 23:53:00,
2013-03-29 19:54:00,46.7,0.8,30.20,NW,325,4.0,4.0,15,0.00,,,0.00,VWS V14.01,2013-03-29 23:54:00,
2013-03-29 19:55:00,46.2,0.8,30.20,NW,322,3.9,3.9,15,0.00,,,0.00,VWS V14.01,2013-03-29 23:55:00,
2013-03-29 19:56:00,49.0,1.6,30.18,NW,324,6.9,6.9,14,0.00,,,0.00,VWS V14.01,2013-03-29 23:56:00,
2013-03-29 19:57:00,49.0,-1.0,30.18,NW,316,8.8,8.8,12,0.00,,,0.00,VWS V14.01,2013-03-29 23:57:00,
2013-03-29 19:58:00,48.8,-2.2,30.18,NNW,334,11.2,11.2,12,0.00,,,0.00,VWS V14.01,2013-03-29 23:58:00,
2013-03-29 19:59:00,45.1,4.7,30.19,NW,323,3.4,3.4,18,0.00,,,0.00,VWS V14.01,2013-03-29 23:59:00,
2013-03-29 20:00:00,45.6,5.1,30.19,NW,323,3.7,3.7,18,0.00,,,0.00,VWS V14.01,2013-03-30 00:00:00,
2013-03-29 20:01:00,49.0,-2.6,30.18,NNW,337,6.8,8.8,11,0.00,,,0.00,VWS V14.01,2013-03-30 00:01:00,
2013-03-29 20:02:00,45.2,5.2,30.19,NW,321,2.8,3.7,19,0.00,,,0.00,VWS V14.01,2013-03-30 00:02:00,
2013-03-29 20:03:00,48.9,1.1,30.19,NW,310,6.9,6.9,14,0.00,,,0.00,VWS V14.01,2013-03-30 00:03:00,
2013-03-29 20:04:00,48.8,2.8,30.19,NW,321,4.9,8.1,15,0.00,,,0.00,VWS V14.01,2013-03-30 00:04:00,
2013-03-29 20:05:00,44.3,5.4,30.20,NW,322,1.6,3.7,20,0.00,,,0.00,VWS V14.01,2013-03-30 00:05:00,
2013-03-29 20:06:00,45.3,4.4,30.20,NW,322,2.0,3.7,18,0.00,,,0.00,VWS V14.01,2013-03-30 00:06:00,
2013-03-29 20:07:00,48.6,-4.1,30.19,NW,325,9.0,9.0,11,0.00,,,0.00,VWS V14.01,2013-03-30 00:07:00,
2013-03-29 20:08:00,44.8,6.7,30.20,NW,322,2.3,3.7,20,0.00,,,0.00,VWS V14.01,2013-03-30 00:08:00,
2013-03-29 20:09:00,48.4,0.2,30.19,WNW,299,7.1,8.5,13,0.00,,,0.00,VWS V14.01,2013-03-30 00:09:00,
2013-03-29 20:10:00,45.3,2.2,30.20,NW,322,2.8,3.7,16,0.00,,,0.00,VWS V14.01,2013-03-30 00:10:00,
2013-03-29 20:11:00,48.2,-2.1,30.19,NW,307,6.6,7.1,12,0.00,,,0.00,VWS V14.01,2013-03-30 00:11:00,
2013-03-29 20:12:00,43.8,5.3,30.20,NW,317,2.5,3.7,20,0.00,,,0.00,VWS V14.01,2013-03-30 00:12:00,
2013-03-29 20:13:00,48.7,1.5,30.18,NNW,348,5.2,6.9,14,0.00,,,0.00,VWS V14.01,2013-03-30 00:13:00,
2013-03-29 20:14:00,48.4,1.9,30.18,WNW,299,5.9,5.9,14,0.00,,,0.00,VWS V14.01,2013-03-30 00:14:00,
2013-03-29 20:15:00,43.1,6.4,30.24,NW,318,2.3,3.7,22,0.00,,,0.00,VWS V14.01,2013-03-30 00:15:00,
2013-03-29 20:16:00,48.2,1.4,30.19,NW,314,7.8,9.5,14,0.00,,,0.00,VWS V14.01,2013-03-30 00:16:00,
2013-03-29 20:17:00,45.0,5.4,30.20,NW,318,2.3,3.7,19,0.00,,,0.00,VWS V14.01,2013-03-30 00:17:00,
2013-03-29 20:18:00,48.6,-1.1,30.19,North,351,5.1,5.4,12,0.00,,,0.00,VWS V14.01,2013-03-30 00:18:00,
2013-03-29 20:19:00,48.6,2.1,30.18,NNW,336,4.5,5.9,14,0.00,,,0.00,VWS V14.01,2013-03-30 00:19:00,
2013-03-29 20:20:00,44.8,7.3,30.21,NW,318,1.0,3.7,21,0.00,,,0.00,VWS V14.01,2013-03-30 00:20:00,
2013-03-29 20:21:00,44.8,5.0,30.21,NW,318,0.0,3.7,19,0.00,,,0.00,VWS V14.01,2013-03-30 00:21:00,
2013-03-29 20:22:00,48.5,2.6,30.19,NW,321,6.1,6.6,15,0.00,,,0.00,VWS V14.01,2013-03-30 00:22:00,
2013-03-29 20:23:00,44.5,7.3,30.20,NW,318,0.0,3.7,21,0.00,,,0.00,VWS V14.01,2013-03-30 00:23:00,
2013-03-29 20:24:00,48.8,2.6,30.19,NNW,344,6.1,6.1,15,0.00,,,0.00,VWS V14.01,2013-03-30 00:24:00,
2013-03-29 20:25:00,44.4,7.7,30.19,NW,318,0.0,3.7,22,0.00,,,0.00,VWS V14.01,2013-03-30 00:25:00,
2013-03-29 20:26:00,45.3,5.9,30.20,NW,318,0.0,3.7,19,0.00,,,0.00,VWS V14.01,2013-03-30 00:26:00,
2013-03-29 20:27:00,49.2,-0.5,30.18,NNW,338,4.4,7.3,12,0.00,,,0.00,VWS V14.01,2013-03-30 00:27:00,
2013-03-29 20:28:00,45.0,6.1,30.20,NW,318,1.6,3.7,20,0.00,,,0.00,VWS V14.01,2013-03-30 00:28:00,
2013-03-29 20:29:00,45.1,6.3,30.20,NW,318,1.0,3.7,20,0.00,,,0.00,VWS V14.01,2013-03-30 00:29:00,
2013-03-29 20:30:00,48.5,0.7,30.19,NW,312,8.8,8.8,14,0.00,,,0.00,VWS V14.01,2013-03-30 00:30:00,
2013-03-29 20:31:00,48.5,-0.7,30.19,NW,319,5.1,8.8,13,0.00,,,0.00,VWS V14.01,2013-03-30 00:31:00,
2013-03-29 20:32:00,44.4,6.8,30.20,NW,318,0.0,3.7,21,0.00,,,0.00,VWS V14.01,2013-03-30 00:32:00,
2013-03-29 20:33:00,44.3,6.9,30.20,NW,318,0.0,3.7,21,0.00,,,0.00,VWS V14.01,2013-03-30 00:33:00,
2013-03-29 20:34:00,48.6,1.4,30.19,NNW,339,6.6,6.6,14,0.00,,,0.00,VWS V14.01,2013-03-30 00:34:00,
2013-03-29 20:35:00,48.4,1.1,30.20,NNW,328,5.6,6.6,14,0.00,,,0.00,VWS V14.01,2013-03-30 00:35:00,
2013-03-29 20:36:00,48.1,1.0,30.19,NW,314,4.9,5.6,14,0.00,,,0.00,VWS V14.01,2013-03-30 00:36:00,
2013-03-29 20:37:00,47.9,0.9,30.19,NNW,332,6.6,6.6,14,0.00,,,0.00,VWS V14.01,2013-03-30 00:37:00,
2013-03-29 20:38:00,42.6,9.4,30.21,WNW,290,0.0,3.7,25,0.00,,,0.00,VWS V14.01,2013-03-30 00:38:00,
2013-03-29 20:39:00,42.4,9.2,30.21,WNW,290,0.0,3.7,25,0.00,,,0.00,VWS V14.01,2013-03-30 00:39:00,
2013-03-29 20:40:00,43.1,9.4,30.21,WNW,290,0.0,3.7,25,0.00,,,0.00,VWS V14.01,2013-03-30 00:40:00,
2013-03-29 20:41:00,48.2,3.8,30.19,NE,40,3.0,3.9,16,0.00,,,0.00,VWS V14.01,2013-03-30 00:41:00,
2013-03-29 20:42:00,42.5,10.1,30.20,WNW,290,0.0,3.7,26,0.00,,,0.00,VWS V14.01,2013-03-30 00:42:00,
2013-03-29 20:43:00,47.8,-1.6,30.19,NNW,330,2.7,4.2,12,0.00,,,0.00,VWS V14.01,2013-03-30 00:43:00,
2013-03-29 20:44:00,42.7,10.1,30.21,WNW,290,1.8,3.7,26,0.00,,,0.00,VWS V14.01,2013-03-30 00:44:00,
2013-03-29 20:45:00,42.6,10.9,30.20,WNW,290,2.0,3.7,27,0.00,,,0.00,VWS V14.01,2013-03-30 00:45:00,
2013-03-29 20:46:00,47.5,0.2,30.19,NW,309,2.8,3.0,14,0.00,,,0.00,VWS V14.01,2013-03-30 00:46:00,
2013-03-29 20:47:00,47.3,1.3,30.19,North,2,3.4,3.4,15,0.00,,,0.00,VWS V14.01,2013-03-30 00:47:00,
2013-03-29 20:48:00,42.6,11.5,30.21,WNW,290,2.2,3.7,28,0.00,,,0.00,VWS V14.01,2013-03-30 00:48:00,
2013-03-29 20:49:00,47.3,-1.3,30.20,NW,314,3.7,3.9,13,0.00,,,0.00,VWS V14.01,2013-03-30 00:49:00,
2013-03-29 20:50:00,42.9,11.6,30.21,WNW,290,2.5,3.7,27,0.00,,,0.00,VWS V14.01,2013-03-30 00:50:00,
2013-03-29 20:51:00,43.0,11.2,30.21,WNW,290,2.3,3.7,27,0.00,,,0.00,VWS V14.01,2013-03-30 00:51:00,
2013-03-29 20:52:00,46.9,-0.6,30.20,NNW,337,2.0,2.3,13,0.00,,,0.00,VWS V14.01,2013-03-30 00:52:00,
2013-03-29 20:53:00,46.4,0.7,30.20,NNW,331,2.2,2.2,15,0.00,,,0.00,VWS V14.01,2013-03-30 00:53:00,
2013-03-29 20:54:00,46.7,3.0,30.19,NNW,330,2.5,3.2,16,0.00,,,0.00,VWS V14.01,2013-03-30 00:54:00,
2013-03-29 20:55:00,42.5,10.5,30.21,WNW,290,1.3,3.7,27,0.00,,,0.00,VWS V14.01,2013-03-30 00:55:00,
2013-03-29 20:56:00,46.2,0.8,30.20,NW,322,3.9,3.9,15,0.00,,,0.00,VWS V14.01,2013-03-30 00:56:00,
2013-03-29 20:57:00,42.3,10.3,30.22,WNW,290,1.8,3.7,27,0.00,,,0.00,VWS V14.01,2013-03-30 00:57:00,
2013-03-29 20:58:00,45.3,4.3,30.20,NW,321,3.4,3.7,18,0.00,,,0.00,VWS V14.01,2013-03-30 00:58:00,
2013-03-29 20:59:00,45.7,5.0,30.19,NW,321,3.5,3.7,18,0.00,,,0.00,VWS V14.01,2013-03-30 00:59:00,
2013-03-29 21:00:00,40.9,11.4,30.22,WNW,290,1.8,3.7,29,0.00,,,0.00,VWS V14.01,2013-03-30 01:00:00,
2013-03-29 21:01:00,41.2,12.0,30.21,WNW,290,2.0,3.7,30,0.00,,,0.00,VWS V14.01,2013-03-30 01:01:00,
2013-03-29 21:02:00,40.7,11.6,30.21,WNW,290,2.2,2.3,30,0.00,,,0.00,VWS V14.01,2013-03-30 01:02:00,
2013-03-29 21:03:00,40.7,11.6,30.21,WNW,290,2.2,2.3,30,0.00,,,0.00,VWS V14.01,2013-03-30 01:03:00,
2013-03-29 21:04:00,40.3,12.0,30.21,WNW,290,2.5,2.5,31,0.00,,,0.00,VWS V14.01,2013-03-30 01:04:00,
2013-03-29 21:06:00,39.9,12.4,30.22,NW,324,4.4,4.4,32,0.00,,,0.00,VWS V14.01,2013-03-30 01:06:00,
2013-03-29 21:07:00,39.7,12.6,30.22,NW,323,4.4,4.4,33,0.00,,,0.00,VWS V14.01,2013-03-30 01:07:00,
2013-03-29 21:08:00,38.5,11.9,30.22,NW,321,4.5,4.5,33,0.00,,,0.00,VWS V14.01,2013-03-30 01:08:00,
2013-03-29 21:09:00,38.1,12.2,30.21,NW,308,4.5,4.5,34,0.00,,,0.00,VWS V14.01,2013-03-30 01:09:00,
2013-03-29 21:10:00,39.0,13.2,30.22,WNW,303,7.1,7.1,34,0.00,,,0.00,VWS V14.01,2013-03-30 01:10:00,
2013-03-29 21:11:00,39.8,14.9,30.22,NW,309,7.3,7.3,36,0.00,,,0.00,VWS V14.01,2013-03-30 01:11:00,
2013-03-29 21:12:00,41.0,14.2,30.22,NW,308,4.9,7.3,33,0.00,,,0.00,VWS V14.01,2013-03-30 01:12:00,
2013-03-29 21:13:00,40.1,13.2,30.22,NW,308,5.7,5.7,33,0.00,,,0.00,VWS V14.01,2013-03-30 01:13:00,
2013-03-29 21:14:00,41.3,13.8,30.22,NW,308,5.4,5.7,32,0.00,,,0.00,VWS V14.01,2013-03-30 01:14:00,
2013-03-29 21:15:00,40.7,13.4,30.22,NW,312,5.6,5.6,32,0.00,,,0.00,VWS V14.01,2013-03-30 01:15:00,
2013-03-29 21:16:00,39.5,13.0,30.22,NW,311,5.6,5.6,33,0.00,,,0.00,VWS V14.01,2013-03-30 01:16:00,
2013-03-29 21:17:00,40.5,13.6,30.23,NW,309,6.4,6.4,33,0.00,,,0.00,VWS V14.01,2013-03-30 01:17:00,
2013-03-29 21:18:00,40.7,13.8,30.23,NW,311,6.4,6.4,33,0.00,,,0.00,VWS V14.01,2013-03-30 01:18:00,
2013-03-29 21:19:00,40.7,13.3,30.23,NW,325,6.3,6.8,32,0.00,,,0.00,VWS V14.01,2013-03-30 01:19:00,
2013-03-29 21:20:00,40.7,13.1,30.27,NW,306,6.4,6.4,32,0.00,,,0.00,VWS V14.01,2013-03-30 01:20:00,
2013-03-29 21:21:00,41.5,14.4,30.23,NW,310,6.8,6.8,33,0.00,,,0.00,VWS V14.01,2013-03-30 01:21:00,
2013-03-29 21:22:00,40.9,14.1,30.23,NW,309,5.6,5.9,33,0.00,,,0.00,VWS V14.01,2013-03-30 01:22:00,
2013-03-29 21:23:00,40.9,14.1,30.23,NW,309,5.6,5.9,33,0.00,,,0.00,VWS V14.01,2013-03-30 01:23:00,
2013-03-29 21:24:00,41.3,14.3,30.23,NW,309,8.7,8.7,33,0.00,,,0.00,VWS V14.01,2013-03-30 01:24:00,
2013-03-29 21:25:00,41.4,14.1,30.23,NW,322,8.0,8.7,32,0.00,,,0.00,VWS V14.01,2013-03-30 01:25:00,
2013-03-29 21:26:00,41.6,14.4,30.22,NW,315,7.5,9.2,33,0.00,,,0.00,VWS V14.01,2013-03-30 01:26:00,
2013-03-29 21:27:00,42.4,13.7,30.22,NW,304,8.8,10.4,31,0.00,,,0.00,VWS V14.01,2013-03-30 01:27:00,
2013-03-29 21:28:00,42.4,13.7,30.21,NW,304,8.8,10.4,31,0.00,,,0.00,VWS V14.01,2013-03-30 01:28:00,
2013-03-29 21:29:00,41.7,13.3,30.22,NW,319,6.8,7.3,31,0.00,,,0.00,VWS V14.01,2013-03-30 01:29:00,
2013-03-29 21:30:00,41.7,13.5,30.23,NW,324,6.9,7.1,31,0.00,,,0.00,VWS V14.01,2013-03-30 01:30:00,
2013-03-29 21:31:00,41.3,14.1,30.23,NW,310,7.8,7.8,33,0.00,,,0.00,VWS V14.01,2013-03-30 01:31:00,
2013-03-29 21:32:00,42.1,14.6,30.23,NNW,331,7.6,7.8,32,0.00,,,0.00,VWS V14.01,2013-03-30 01:32:00,
2013-03-29 21:33:00,41.5,14.0,30.23,NW,320,6.9,7.1,32,0.00,,,0.00,VWS V14.01,2013-03-30 01:33:00,
2013-03-29 21:34:00,42.2,14.0,30.23,NW,319,9.7,9.7,31,0.00,,,0.00,VWS V14.01,2013-03-30 01:34:00,
2013-03-29 21:35:00,42.1,14.6,30.23,NNW,333,8.3,8.3,32,0.00,,,0.00,VWS V14.01,2013-03-30 01:35:00,
2013-03-29 21:36:00,40.5,13.7,30.22,NW,313,7.6,8.3,33,0.00,,,0.00,VWS V14.01,2013-03-30 01:36:00,
2013-03-29 21:37:00,41.5,14.6,30.23,NW,319,8.7,8.7,33,0.00,,,0.00,VWS V14.01,2013-03-30 01:37:00,
2013-03-29 21:38:00,41.6,14.6,30.23,NW,321,7.6,8.7,33,0.00,,,0.00,VWS V14.01,2013-03-30 01:38:00,
2013-03-29 21:39:00,40.7,14.1,30.23,NW,318,8.0,8.0,33,0.00,,,0.00,VWS V14.01,2013-03-30 01:39:00,
2013-03-29 21:40:00,40.7,13.4,30.27,NW,318,6.8,8.8,32,0.00,,,0.00,VWS V14.01,2013-03-30 01:40:00,
2013-03-29 21:41:00,40.6,13.6,30.28,NW,320,6.4,6.8,33,0.00,,,0.00,VWS V14.01,2013-03-30 01:41:00,
2013-03-29 21:42:00,40.6,14.1,30.24,NW,310,6.8,6.8,34,0.00,,,0.00,VWS V14.01,2013-03-30 01:42:00,
2013-03-29 21:43:00,41.1,14.7,30.23,NW,318,7.1,7.1,34,0.00,,,0.00,VWS V14.01,2013-03-30 01:43:00,
2013-03-29 21:44:00,41.1,14.7,30.24,NNW,328,8.1,8.1,34,0.00,,,0.00,VWS V14.01,2013-03-30 01:44:00,
2013-03-29 21:45:00,40.5,14.4,30.23,NNW,328,6.1,6.8,34,0.00,,,0.00,VWS V14.01,2013-03-30 01:45:00,
2013-03-29 21:46:00,40.3,14.4,30.23,NW,323,6.6,6.6,34,0.00,,,0.00,VWS V14.01,2013-03-30 01:46:00,
2013-03-29 21:47:00,40.9,15.0,30.22,NW,315,6.1,6.3,35,0.00,,,0.00,VWS V14.01,2013-03-30 01:47:00,
2013-03-29 21:48:00,40.9,15.1,30.23,NW,315,5.6,6.1,35,0.00,,,0.00,VWS V14.01,2013-03-30 01:48:00,
2013-03-29 21:49:00,39.6,14.1,30.22,NW,313,6.3,6.3,35,0.00,,,0.00,VWS V14.01,2013-03-30 01:49:00,
2013-03-29 21:50:00,40.3,14.5,30.24,NW,322,6.4,6.4,35,0.00,,,0.00,VWS V14.01,2013-03-30 01:50:00,
2013-03-29 21:51:00,40.5,14.9,30.23,NW,321,6.8,6.8,35,0.00,,,0.00,VWS V14.01,2013-03-30 01:51:00,
2013-03-29 21:52:00,39.9,14.3,30.23,NW,308,6.4,9.3,35,0.00,,,0.00,VWS V14.01,2013-03-30 01:52:00,
2013-03-29 21:53:00,40.0,14.8,30.23,NW,316,6.3,6.8,35,0.00,,,0.00,VWS V14.01,2013-03-30 01:53:00,
2013-03-29 21:54:00,39.8,14.0,30.23,NW,321,7.5,7.5,34,0.00,,,0.00,VWS V14.01,2013-03-30 01:54:00,
2013-03-29 21:55:00,39.8,14.4,30.23,NW,316,6.1,7.5,35,0.00,,,0.00,VWS V14.01,2013-03-30 01:55:00,
2013-03-29 21:56:00,40.7,15.3,30.23,NW,311,6.4,6.6,35,0.00,,,0.00,VWS V14.01,2013-03-30 01:56:00,
2013-03-29 21:57:00,39.6,14.6,30.23,NW,316,6.8,6.8,36,0.00,,,0.00,VWS V14.01,2013-03-30 01:57:00,
2013-03-29 21:58:00,40.0,15.0,30.23,NW,320,6.3,6.8,36,0.00,,,0.00,VWS V14.01,2013-03-30 01:58:00,
2013-03-29 21:59:00,39.5,14.6,30.25,NW,312,6.3,6.6,36,0.00,,,0.00,VWS V14.01,2013-03-30 01:59:00,
2013-03-29 22:00:00,39.5,14.6,30.25,NW,312,6.3,6.6,36,0.00,,,0.00,VWS V14.01,2013-03-30 02:00:00,
2013-03-29 22:05:00,40.2,15.7,30.24,NNW,332,6.8,6.8,37,0.00,,,0.00,VWS V14.01,2013-03-30 02:05:00,
2013-03-29 22:06:00,40.2,15.4,30.23,NNW,328,6.3,6.8,36,0.00,,,0.00,VWS V14.01,2013-03-30 02:06:00,
2013-03-29 22:08:00,40.0,15.5,30.23,NW,321,6.4,6.8,36,0.00,,,0.00,VWS V14.01,2013-03-30 02:08:00,
2013-03-29 22:10:00,39.8,15.3,30.23,NNW,336,6.3,6.8,36,0.00,,,0.00,VWS V14.01,2013-03-30 02:10:00,
2013-03-29 22:11:00,38.5,14.0,30.23,NW,326,5.2,6.8,36,0.00,,,0.00,VWS V14.01,2013-03-30 02:11:00,
2013-03-29 22:12:00,38.8,14.5,30.23,NNW,338,4.5,6.8,37,0.00,,,0.00,VWS V14.01,2013-03-30 02:12:00,
2013-03-29 22:13:00,39.6,15.3,30.23,NW,314,6.6,6.8,37,0.00,,,0.00,VWS V14.01,2013-03-30 02:13:00,
2013-03-29 22:17:00,39.2,14.7,30.24,NNW,328,5.7,7.5,36,0.00,,,0.00,VWS V14.01,2013-03-30 02:17:00,
2013-03-29 22:18:00,39.2,14.7,30.24,NNW,328,5.7,7.5,36,0.00,,,0.00,VWS V14.01,2013-03-30 02:18:00,
2013-03-29 22:19:00,38.2,14.0,30.24,NW,317,4.7,7.5,37,0.00,,,0.00,VWS V14.01,2013-03-30 02:19:00,
2013-03-29 22:22:00,39.2,14.7,30.23,NW,320,5.4,7.5,36,0.00,,,0.00,VWS V14.01,2013-03-30 02:22:00,
2013-03-29 22:24:00,39.3,14.6,30.24,NW,322,5.6,7.5,36,0.00,,,0.00,VWS V14.01,2013-03-30 02:24:00,
2013-03-29 22:25:00,39.1,15.1,30.24,NW,315,5.1,7.5,37,0.00,,,0.00,VWS V14.01,2013-03-30 02:25:00,
2013-03-29 22:27:00,39.0,15.3,30.23,NW,316,4.7,7.5,38,0.00,,,0.00,VWS V14.01,2013-03-30 02:27:00,
2013-03-29 22:28:00,37.7,14.3,30.24,NW,322,4.4,7.5,38,0.00,,,0.00,VWS V14.01,2013-03-30 02:28:00,
2013-03-29 22:29:00,37.8,14.5,30.23,NW,310,3.7,7.5,38,0.00,,,0.00,VWS V14.01,2013-03-30 02:29:00,
2013-03-29 22:30:00,37.5,14.3,30.24,NW,318,4.4,7.5,38,0.00,,,0.00,VWS V14.01,2013-03-30 02:30:00,
2013-03-29 22:32:00,38.5,14.8,30.24,NW,315,3.9,7.5,37,0.00,,,0.00,VWS V14.01,2013-03-30 02:32:00,
2013-03-29 22:33:00,39.2,15.3,30.24,NNW,333,4.5,7.5,37,0.00,,,0.00,VWS V14.01,2013-03-30 02:33:00,
2013-03-29 22:34:00,39.4,15.7,30.24,NW,326,4.9,7.5,38,0.00,,,0.00,VWS V14.01,2013-03-30 02:34:00,
2013-03-29 22:37:00,38.6,14.8,30.24,NW,317,5.1,7.5,37,0.00,,,0.00,VWS V14.01,2013-03-30 02:37:00,
2013-03-29 22:38:00,39.3,15.4,30.24,NW,311,4.4,7.5,37,0.00,,,0.00,VWS V14.01,2013-03-30 02:38:00,
2013-03-29 22:39:00,38.0,14.2,30.24,NW,320,4.5,7.5,37,0.00,,,0.00,VWS V14.01,2013-03-30 02:39:00,
2013-03-29 22:40:00,38.1,14.7,30.24,NW,315,4.5,7.5,38,0.00,,,0.00,VWS V14.01,2013-03-30 02:40:00,
2013-03-29 22:43:00,37.6,14.8,30.24,NW,320,4.4,7.5,39,0.00,,,0.00,VWS V14.01,2013-03-30 02:43:00,
2013-03-29 22:46:00,37.4,14.2,30.24,NNW,328,4.0,7.5,38,0.00,,,0.00,VWS V14.01,2013-03-30 02:46:00,
2013-03-29 22:47:00,38.7,15.4,30.26,NNW,341,2.8,7.5,38,0.00,,,0.00,VWS V14.01,2013-03-30 02:47:00,
2013-03-29 22:48:00,39.0,15.4,30.24,NNW,327,2.2,7.5,38,0.00,,,0.00,VWS V14.01,2013-03-30 02:48:00,
2013-03-29 22:49:00,39.0,15.4,30.24,NNW,327,2.2,7.5,38,0.00,,,0.00,VWS V14.01,2013-03-30 02:49:00,
2013-03-29 22:52:00,38.0,14.4,30.24,WNW,292,3.5,7.5,38,0.00,,,0.00,VWS V14.01,2013-03-30 02:52:00,
2013-03-29 22:53:00,39.5,15.4,30.24,NW,323,4.0,7.5,37,0.00,,,0.00,VWS V14.01,2013-03-30 02:53:00,
2013-03-29 22:54:00,38.9,14.6,30.24,NNW,328,2.8,7.5,37,0.00,,,0.00,VWS V14.01,2013-03-30 02:54:00,
2013-03-29 22:55:00,37.7,14.1,30.24,NNW,340,2.2,7.5,37,0.00,,,0.00,VWS V14.01,2013-03-30 02:55:00,
2013-03-29 22:58:00,38.8,14.7,30.26,North,2,3.5,7.5,37,0.00,,,0.00,VWS V14.01,2013-03-30 02:58:00,
2013-03-29 22:59:00,38.5,14.5,30.24,North,349,2.8,7.5,37,0.00,,,0.00,VWS V14.01,2013-03-30 02:59:00,
2013-03-29 23:00:00,38.5,14.5,30.24,North,349,2.8,7.5,37,0.00,,,0.00,VWS V14.01,2013-03-30 03:00:00,
2013-03-29 23:01:00,38.4,14.2,30.24,North,8,0.0,7.5,37,0.00,,,0.00,VWS V14.01,2013-03-30 03:01:00,
2013-03-29 23:02:00,37.1,13.5,30.24,NW,322,3.0,3.0,38,0.00,,,0.00,VWS V14.01,2013-03-30 03:02:00,
2013-03-29 23:03:00,38.5,14.9,30.24,North,351,1.1,3.0,38,0.00,,,0.00,VWS V14.01,2013-03-30 03:03:00,
2013-03-29 23:04:00,38.2,14.4,30.30,NNW,332,3.7,3.7,37,0.00,,,0.00,VWS V14.01,2013-03-30 03:04:00,
2013-03-29 23:05:00,38.1,14.3,30.26,North,8,3.4,3.7,37,0.00,,,0.00,VWS V14.01,2013-03-30 03:05:00,
2013-03-29 23:06:00,38.0,14.5,30.24,NNW,338,2.3,2.8,38,0.00,,,0.00,VWS V14.01,2013-03-30 03:06:00,
2013-03-29 23:07:00,37.6,14.1,30.24,NNW,327,3.0,3.2,38,0.00,,,0.00,VWS V14.01,2013-03-30 03:07:00,
2013-03-29 23:08:00,38.8,15.1,30.24,NNW,341,3.5,3.5,37,0.00,,,0.00,VWS V14.01,2013-03-30 03:08:00,
2013-03-29 23:09:00,38.1,14.4,30.25,NNW,332,2.7,3.5,37,0.00,,,0.00,VWS V14.01,2013-03-30 03:09:00,
2013-03-29 23:10:00,38.6,14.8,30.25,NW,323,2.5,2.7,37,0.00,,,0.00,VWS V14.01,2013-03-30 03:10:00,
2013-03-29 23:11:00,37.9,14.6,30.28,NNW,336,3.2,3.2,38,0.00,,,0.00,VWS V14.01,2013-03-30 03:11:00,
2013-03-29 23:12:00,38.5,15.1,30.25,NNW,327,3.0,3.2,38,0.00,,,0.00,VWS V14.01,2013-03-30 03:12:00,
2013-03-29 23:13:00,38.2,15.1,30.24,NNW,335,3.9,4.4,38,0.00,,,0.00,VWS V14.01,2013-03-30 03:13:00,
2013-03-29 23:14:00,37.7,14.9,30.24,NNW,329,3.5,3.9,39,0.00,,,0.00,VWS V14.01,2013-03-30 03:14:00,
2013-03-29 23:15:00,37.0,13.9,30.24,North,352,4.2,5.4,38,0.00,,,0.00,VWS V14.01,2013-03-30 03:15:00,
2013-03-29 23:16:00,38.2,14.6,30.24,NNW,340,3.4,4.2,38,0.00,,,0.00,VWS V14.01,2013-03-30 03:16:00,
2013-03-29 23:17:00,38.2,14.7,30.24,NNW,334,3.4,3.4,38,0.00,,,0.00,VWS V14.01,2013-03-30 03:17:00,
2013-03-29 23:18:00,38.4,14.9,30.24,NNW,341,3.2,3.5,38,0.00,,,0.00,VWS V14.01,2013-03-30 03:18:00,
2013-03-29 23:19:00,38.0,14.9,30.24,NNW,343,2.7,3.2,38,0.00,,,0.00,VWS V14.01,2013-03-30 03:19:00,
2013-03-29 23:20:00,38.4,15.0,30.24,NW,325,3.5,5.1,38,0.00,,,0.00,VWS V14.01,2013-03-30 03:20:00,
2013-03-29 23:21:00,38.2,14.6,30.24,NNW,335,3.4,3.9,38,0.00,,,0.00,VWS V14.01,2013-03-30 03:21:00,
2013-03-29 23:22:00,37.5,14.3,30.24,NNW,333,3.4,3.4,38,0.00,,,0.00,VWS V14.01,2013-03-30 03:22:00,
2013-03-29 23:23:00,37.6,14.7,30.24,NNW,332,3.7,3.7,39,0.00,,,0.00,VWS V14.01,2013-03-30 03:23:00,
2013-03-29 23:24:00,37.5,14.4,30.24,NNW,335,3.4,4.0,38,0.00,,,0.00,VWS V14.01,2013-03-30 03:24:00,
2013-03-29 23:25:00,37.7,14.6,30.24,NNW,328,3.7,3.7,38,0.00,,,0.00,VWS V14.01,2013-03-30 03:25:00,
2013-03-29 23:26:00,36.8,14.2,30.24,NW,316,4.2,4.2,39,0.00,,,0.00,VWS V14.01,2013-03-30 03:26:00,
2013-03-29 23:27:00,37.4,14.5,30.23,NW,317,3.9,4.4,39,0.00,,,0.00,VWS V14.01,2013-03-30 03:27:00,
2013-03-29 23:28:00,36.9,14.1,30.23,NNW,330,4.2,4.2,39,0.00,,,0.00,VWS V14.01,2013-03-30 03:28:00,
2013-03-29 23:29:00,35.3,13.0,30.24,NW,314,3.5,4.2,39,0.00,,,0.00,VWS V14.01,2013-03-30 03:29:00,
2013-03-29 23:30:00,37.9,15.3,30.23,NW,319,4.2,4.2,39,0.00,,,0.00,VWS V14.01,2013-03-30 03:30:00,
2013-03-29 23:31:00,37.8,15.1,30.24,NW,324,4.7,4.7,39,0.00,,,0.00,VWS V14.01,2013-03-30 03:31:00,
2013-03-29 23:32:00,38.1,15.2,30.24,NNW,334,4.5,4.7,39,0.00,,,0.00,VWS V14.01,2013-03-30 03:32:00,
2013-03-29 23:33:00,38.1,15.2,30.24,NNW,334,4.5,4.7,39,0.00,,,0.00,VWS V14.01,2013-03-30 03:33:00,
2013-03-29 23:34:00,38.0,15.1,30.24,NW,321,3.9,4.4,39,0.00,,,0.00,VWS V14.01,2013-03-30 03:34:00,
2013-03-29 23:35:00,38.0,15.2,30.24,NW,320,3.9,3.9,39,0.00,,,0.00,VWS V14.01,2013-03-30 03:35:00,
2013-03-29 23:36:00,37.3,14.6,30.24,NW,322,3.9,4.4,39,0.00,,,0.00,VWS V14.01,2013-03-30 03:36:00,
2013-03-29 23:37:00,38.2,15.2,30.24,NNW,327,5.6,5.6,39,0.00,,,0.00,VWS V14.01,2013-03-30 03:37:00,
2013-03-29 23:38:00,37.4,14.4,30.23,NW,326,3.9,5.6,38,0.00,,,0.00,VWS V14.01,2013-03-30 03:38:00,
2013-03-29 23:39:00,36.2,13.7,30.23,NW,325,3.2,3.9,39,0.00,,,0.00,VWS V14.01,2013-03-30 03:39:00,
2013-03-29 23:40:00,37.0,14.7,30.23,NNW,332,3.9,3.9,39,0.00,,,0.00,VWS V14.01,2013-03-30 03:40:00,
2013-03-29 23:41:00,36.3,14.1,30.23,NW,323,3.9,4.4,40,0.00,,,0.00,VWS V14.01,2013-03-30 03:41:00,
2013-03-29 23:42:00,37.3,14.9,30.23,NW,325,3.7,4.4,40,0.00,,,0.00,VWS V14.01,2013-03-30 03:42:00,
2013-03-29 23:43:00,36.8,14.3,30.23,NW,325,4.0,4.0,39,0.00,,,0.00,VWS V14.01,2013-03-30 03:43:00,
2013-03-29 23:44:00,36.6,14.4,30.24,NNW,328,3.5,4.0,40,0.00,,,0.00,VWS V14.01,2013-03-30 03:44:00,
2013-03-29 23:45:00,36.7,14.5,30.24,NW,313,3.2,3.2,40,0.00,,,0.00,VWS V14.01,2013-03-30 03:45:00,
2013-03-29 23:46:00,37.4,15.3,30.24,NNW,329,2.3,3.7,40,0.00,,,0.00,VWS V14.01,2013-03-30 03:46:00,
2013-03-29 23:47:00,37.3,15.2,30.24,NW,325,3.0,3.0,40,0.00,,,0.00,VWS V14.01,2013-03-30 03:47:00,
2013-03-29 23:48:00,37.4,15.3,30.24,NNW,331,2.8,3.5,40,0.00,,,0.00,VWS V14.01,2013-03-30 03:48:00,
2013-03-29 23:49:00,37.5,15.3,30.24,NW,320,4.0,4.2,40,0.00,,,0.00,VWS V14.01,2013-03-30 03:49:00,
2013-03-29 23:50:00,38.3,15.8,30.24,NW,326,4.5,4.5,39,0.00,,,0.00,VWS V14.01,2013-03-30 03:50:00,
2013-03-29 23:51:00,37.2,14.3,30.24,NNW,343,3.4,4.9,39,0.00,,,0.00,VWS V14.01,2013-03-30 03:51:00,
2013-03-29 23:52:00,37.6,14.9,30.24,NNW,341,2.2,3.4,39,0.00,,,0.00,VWS V14.01,2013-03-30 03:52:00,
2013-03-29 23:53:00,36.9,14.7,30.24,NNW,344,2.7,3.7,40,0.00,,,0.00,VWS V14.01,2013-03-30 03:53:00,
2013-03-29 23:54:00,36.8,14.7,30.24,North,0,0.0,2.7,40,0.00,,,0.00,VWS V14.01,2013-03-30 03:54:00,
2013-03-29 23:55:00,37.2,14.8,30.24,NNW,347,2.2,2.2,39,0.00,,,0.00,VWS V14.01,2013-03-30 03:55:00,
2013-03-29 23:56:00,37.3,15.0,30.23,NW,326,2.3,2.3,40,0.00,,,0.00,VWS V14.01,2013-03-30 03:56:00,
2013-03-29 23:57:00,37.3,15.0,30.23,NW,326,2.3,2.3,40,0.00,,,0.00,VWS V14.01,2013-03-30 03:57:00,
2013-03-29 23:58:00,35.3,13.9,30.24,North,7,0.0,2.3,41,0.00,,,0.00,VWS V14.01,2013-03-30 03:58:00,
2013-03-29 23:59:00,35.3,13.9,30.24,North,7,0.0,2.3,41,0.00,,,0.00,VWS V14.01,2013-03-30 03:59:00,